Time;durP1;ratioP1;P1;durP2;ratioP2;P2;SDS_P1;SDS_P2;PMS_P1;PMS_P2;Temp;Humidity;BMP_temperature;BMP_pressure;BME280_temperature;BME280_humidity;BME280_pressure;Samples;Min_cycle;Max_cycle;Signal;HPM_P1;HPM_P2
2021/05/10 00:01:47;;;;;;;1.88;0.73;;;18.60;99.90;;;;;;5018125;28;20454;-88
2021/05/10 00:04:14;;;;;;;2.95;0.80;;;18.60;99.90;;;;;;5030565;28;20439;-87
2021/05/10 00:06:41;;;;;;;2.55;0.85;;;18.50;99.90;;;;;;5009459;28;20777;-86
2021/05/10 00:09:08;;;;;;;2.58;0.70;;;18.60;99.90;;;;;;5020333;28;20401;-85
2021/05/10 00:11:35;;;;;;;3.08;0.85;;;18.60;99.90;;;;;;5012345;28;20905;-87
2021/05/10 00:14:04;;;;;;;1.67;0.90;;;18.60;99.90;;;;;;5023684;28;20399;-87
2021/05/10 00:16:32;;;;;;;2.30;0.70;;;18.70;99.90;;;;;;5018124;28;20429;-86
2021/05/10 00:19:01;;;;;;;1.45;0.65;;;18.80;99.90;;;;;;5026100;28;20389;-85
2021/05/10 00:21:28;;;;;;;1.08;0.70;;;18.80;99.90;;;;;;5029613;28;20400;-85
2021/05/10 00:23:55;;;;;;;2.28;0.60;;;18.80;99.90;;;;;;5011329;28;20816;-86
2021/05/10 00:26:22;;;;;;;1.53;0.77;;;18.90;99.90;;;;;;5025980;28;20460;-85
2021/05/10 00:28:49;;;;;;;2.22;0.68;;;19.00;99.90;;;;;;4998503;28;20398;-87
2021/05/10 00:31:16;;;;;;;1.90;0.60;;;19.00;99.90;;;;;;5027743;28;20401;-85
2021/05/10 00:33:43;;;;;;;6.13;0.85;;;19.10;99.90;;;;;;5006973;28;20385;-86
2021/05/10 00:36:10;;;;;;;3.25;0.75;;;19.10;99.90;;;;;;5000990;28;20433;-86
2021/05/10 00:38:37;;;;;;;0.93;0.40;;;19.10;99.90;;;;;;5027208;28;20389;-85
2021/05/10 00:41:04;;;;;;;2.15;0.50;;;19.10;99.90;;;;;;5027978;28;20417;-86
2021/05/10 00:43:31;;;;;;;1.48;0.52;;;19.10;99.90;;;;;;5024854;28;20393;-87
2021/05/10 00:45:58;;;;;;;1.23;0.57;;;19.20;99.90;;;;;;5017115;28;20909;-83
2021/05/10 00:48:25;;;;;;;1.03;0.50;;;19.30;99.90;;;;;;5023463;28;20443;-85
2021/05/10 00:50:52;;;;;;;2.10;0.60;;;19.50;99.90;;;;;;5024812;28;20389;-86
2021/05/10 00:53:19;;;;;;;2.67;0.47;;;19.50;99.90;;;;;;5002182;28;20403;-87
2021/05/10 00:55:46;;;;;;;1.90;0.40;;;19.50;99.90;;;;;;5007979;28;20403;-86
2021/05/10 00:58:13;;;;;;;0.90;0.50;;;19.50;99.90;;;;;;4995414;28;20391;-85
2021/05/10 01:00:41;;;;;;;1.40;0.73;;;19.50;99.90;;;;;;5021063;28;20401;-86
2021/05/10 01:03:11;;;;;;;1.20;0.57;;;19.50;99.90;;;;;;5025632;28;20401;-86
2021/05/10 01:05:38;;;;;;;1.60;0.60;;;19.40;99.90;;;;;;5025568;28;20381;-87
2021/05/10 01:08:07;;;;;;;1.67;0.50;;;19.50;99.90;;;;;;5011317;28;20413;-87
2021/05/10 01:10:34;;;;;;;2.55;0.60;;;19.50;99.90;;;;;;5015022;28;20809;-87
2021/05/10 01:13:02;;;;;;;0.80;0.50;;;19.40;99.90;;;;;;5013487;28;20443;-85
2021/05/10 01:15:32;;;;;;;1.50;0.70;;;19.40;99.90;;;;;;5035589;28;20896;-83
2021/05/10 01:17:59;;;;;;;1.27;0.50;;;19.40;99.90;;;;;;5036804;28;20380;-86
2021/05/10 01:20:27;;;;;;;4.30;0.60;;;19.40;99.90;;;;;;5005977;28;20509;-86
2021/05/10 01:22:56;;;;;;;1.33;0.50;;;19.40;99.90;;;;;;5024852;28;20393;-86
2021/05/10 01:25:27;;;;;;;1.58;0.73;;;19.40;99.90;;;;;;5014004;28;20447;-86
2021/05/10 01:27:55;;;;;;;3.75;0.60;;;19.40;99.90;;;;;;5034700;28;20391;-83
2021/05/10 01:30:34;;;;;;;0.80;0.40;;;19.40;99.90;;;;;;5033440;28;20431;-84
2021/05/10 01:33:02;;;;;;;1.52;0.50;;;19.50;99.90;;;;;;5010636;28;20389;-84
2021/05/10 01:35:32;;;;;;;1.50;0.50;;;19.70;99.90;;;;;;5015240;28;20468;-85
2021/05/10 01:37:59;;;;;;;1.25;0.68;;;19.80;99.90;;;;;;5014844;28;20432;-84
2021/05/10 01:40:27;;;;;;;1.40;0.50;;;19.90;99.90;;;;;;5009282;28;20437;-82
2021/05/10 01:42:56;;;;;;;1.90;0.50;;;20.00;99.90;;;;;;5022393;28;20389;-82
2021/05/10 01:45:23;;;;;;;1.15;0.40;;;20.00;99.90;;;;;;5023780;28;20955;-83
2021/05/10 01:47:59;;;;;;;0.93;0.40;;;20.10;99.90;;;;;;5005902;28;20436;-83
2021/05/10 01:50:26;;;;;;;1.05;0.40;;;20.10;99.90;;;;;;5021341;28;20389;-83
2021/05/10 01:52:53;;;;;;;3.35;0.55;;;20.10;99.90;;;;;;5027400;28;20386;-82
2021/05/10 01:55:24;;;;;;;1.52;0.30;;;20.10;99.90;;;;;;5026902;28;20399;-85
2021/05/10 01:57:53;;;;;;;1.23;0.77;;;20.20;99.90;;;;;;5016335;28;20420;-84
2021/05/10 02:00:26;;;;;;;0.57;0.43;;;20.20;99.90;;;;;;5009578;28;20409;-85
2021/05/10 02:03:00;;;;;;;2.65;0.40;;;20.10;99.90;;;;;;5021486;28;20393;-85
2021/05/10 02:05:27;;;;;;;1.05;0.30;;;20.20;99.90;;;;;;5005599;28;20437;-85
2021/05/10 02:07:57;;;;;;;0.57;0.50;;;20.20;99.90;;;;;;5002819;28;20752;-85
2021/05/10 02:10:25;;;;;;;0.70;0.40;;;20.20;99.90;;;;;;5017992;28;20404;-85
2021/05/10 02:12:55;;;;;;;2.88;0.57;;;20.20;99.90;;;;;;5003903;28;20395;-83
2021/05/10 02:15:26;;;;;;;3.38;0.50;;;20.20;99.90;;;;;;4998569;28;20897;-85
2021/05/10 02:17:53;;;;;;;2.03;0.40;;;20.30;99.90;;;;;;4998209;28;20484;-83
2021/05/10 02:20:22;;;;;;;0.90;0.30;;;20.30;99.90;;;;;;5006346;28;20975;-84
2021/05/10 02:22:58;;;;;;;3.00;0.30;;;20.40;99.90;;;;;;5028125;28;20397;-84
2021/05/10 02:25:28;;;;;;;1.25;0.40;;;20.40;99.90;;;;;;5029628;28;20393;-84
2021/05/10 02:27:56;;;;;;;1.50;0.40;;;20.50;99.90;;;;;;5025320;28;20478;-83
2021/05/10 02:30:25;;;;;;;1.48;0.40;;;20.50;99.90;;;;;;5005221;28;20501;-84
2021/05/10 02:32:53;;;;;;;0.47;0.47;;;20.50;99.90;;;;;;5024501;28;20389;-83
2021/05/10 02:35:21;;;;;;;2.67;0.50;;;20.50;99.90;;;;;;5011609;28;20419;-85
2021/05/10 02:37:49;;;;;;;2.90;0.40;;;20.50;99.90;;;;;;5003441;28;20395;-86
2021/05/10 02:40:17;;;;;;;0.50;0.40;;;20.50;99.90;;;;;;5019157;28;20405;-85
2021/05/10 02:42:45;;;;;;;3.30;0.60;;;20.60;99.90;;;;;;5030171;28;20393;-85
2021/05/10 02:45:13;;;;;;;1.10;0.50;;;20.60;99.90;;;;;;5030715;28;20397;-85
2021/05/10 02:47:40;;;;;;;2.05;0.50;;;20.70;99.90;;;;;;5029274;28;20394;-85
2021/05/10 02:50:11;;;;;;;2.33;0.52;;;20.70;99.90;;;;;;5029871;28;20450;-85
2021/05/10 02:52:38;;;;;;;0.98;0.50;;;20.70;99.90;;;;;;5022159;28;20410;-84
2021/05/10 02:55:07;;;;;;;0.85;0.40;;;20.70;99.90;;;;;;5014822;28;20875;-84
2021/05/10 02:57:35;;;;;;;0.65;0.43;;;20.80;99.90;;;;;;5018296;28;20411;-86
2021/05/10 03:00:07;;;;;;;2.80;0.50;;;20.80;99.90;;;;;;5013642;28;20410;-84
2021/05/10 03:02:35;;;;;;;1.02;0.57;;;20.90;99.90;;;;;;5026466;28;20483;-84
2021/05/10 03:05:01;;;;;;;1.80;0.47;;;21.10;99.90;;;;;;5028240;28;20861;-84
2021/05/10 03:07:28;;;;;;;1.30;0.30;;;21.20;99.90;;;;;;5011514;28;20913;-83
2021/05/10 03:09:55;;;;;;;1.83;0.68;;;21.30;99.90;;;;;;5022785;28;20391;-87
2021/05/10 03:12:22;;;;;;;0.70;0.40;;;21.20;99.90;;;;;;5016012;28;20888;-86
2021/05/10 03:14:49;;;;;;;0.82;0.50;;;21.20;99.70;;;;;;5016327;28;20469;-84
2021/05/10 03:17:16;;;;;;;1.85;0.40;;;21.10;99.90;;;;;;5008987;28;20515;-86
2021/05/10 03:19:43;;;;;;;2.63;0.50;;;21.10;99.90;;;;;;5013986;28;20394;-85
2021/05/10 03:22:40;;;;;;;4.20;0.85;;;21.10;99.90;;;;;;5016324;28;20426;-86
2021/05/10 03:25:08;;;;;;;2.67;0.40;;;21.20;99.90;;;;;;5019600;28;20393;-85
2021/05/10 03:27:41;;;;;;;1.20;0.80;;;21.30;99.90;;;;;;5029301;28;20427;-85
2021/05/10 03:30:13;;;;;;;1.60;0.50;;;21.30;99.90;;;;;;5008310;28;20476;-86
2021/05/10 03:32:43;;;;;;;2.40;0.40;;;21.30;99.80;;;;;;5005380;28;20422;-86
2021/05/10 03:35:12;;;;;;;1.50;0.30;;;21.30;99.20;;;;;;5019766;28;20862;-86
2021/05/10 03:37:40;;;;;;;0.28;0.20;;;21.40;98.50;;;;;;5010774;28;20528;-86
2021/05/10 03:40:09;;;;;;;1.90;0.38;;;21.40;97.00;;;;;;4998148;28;20416;-87
2021/05/10 03:42:38;;;;;;;2.30;0.20;;;21.40;96.30;;;;;;5026246;28;20387;-86
2021/05/10 03:45:06;;;;;;;1.13;0.30;;;21.40;97.30;;;;;;5017617;28;20418;-86
2021/05/10 03:47:39;;;;;;;0.60;0.30;;;21.40;96.20;;;;;;5008852;28;20407;-86
2021/05/10 03:50:07;;;;;;;1.50;0.30;;;21.40;95.80;;;;;;5026898;28;20807;-87
2021/05/10 03:52:34;;;;;;;1.77;0.20;;;21.30;95.70;;;;;;5007290;28;20474;-86
2021/05/10 03:55:01;;;;;;;0.85;0.30;;;21.30;96.10;;;;;;5025481;28;20913;-85
2021/05/10 03:57:28;;;;;;;3.10;0.20;;;21.30;95.90;;;;;;5015846;28;20498;-86
2021/05/10 03:59:55;;;;;;;0.60;0.20;;;21.40;95.60;;;;;;4999590;28;20505;-86
2021/05/10 04:02:23;;;;;;;0.98;0.30;;;21.30;95.50;;;;;;5028612;28;20428;-85
2021/05/10 04:07:59;;;;;;;2.40;0.22;;;21.30;95.70;;;;;;4986984;28;20405;-85
2021/05/10 04:10:54;;;;;;;0.40;0.30;;;21.40;95.50;;;;;;5027976;28;20401;-86
2021/05/10 04:16:07;;;;;;;0.20;0.20;;;21.30;95.80;;;;;;5026883;28;20425;-85
2021/05/10 04:18:35;;;;;;;1.70;0.22;;;21.20;95.90;;;;;;5010228;28;20393;-85
2021/05/10 04:21:02;;;;;;;0.40;0.28;;;21.30;96.30;;;;;;5018107;28;20510;-84
2021/05/10 04:23:29;;;;;;;0.30;0.17;;;21.30;95.30;;;;;;5010505;28;20387;-87
2021/05/10 04:25:56;;;;;;;0.30;0.10;;;21.30;95.80;;;;;;5024270;28;20484;-85
2021/05/10 04:28:26;;;;;;;0.23;0.23;;;21.30;95.30;;;;;;5028594;28;20440;-86
2021/05/10 04:30:55;;;;;;;1.70;0.20;;;21.30;95.20;;;;;;5014647;28;20388;-86
2021/05/10 04:33:29;;;;;;;0.25;0.25;;;21.30;95.20;;;;;;4999869;28;20526;-86
2021/05/10 04:35:57;;;;;;;1.38;0.30;;;21.40;95.50;;;;;;5019483;28;20394;-86
2021/05/10 04:38:25;;;;;;;0.90;0.40;;;21.50;96.10;;;;;;5021874;28;20749;-87
2021/05/10 04:40:54;;;;;;;0.50;0.38;;;21.50;96.00;;;;;;5016669;28;20413;-84
2021/05/10 04:43:23;;;;;;;1.75;0.40;;;21.60;95.50;;;;;;5017939;28;20401;-86
2021/05/10 04:45:50;;;;;;;1.67;0.30;;;21.60;95.00;;;;;;5025150;28;20405;-86
2021/05/10 04:48:17;;;;;;;0.50;0.30;;;21.70;95.50;;;;;;5001539;28;20393;-85
2021/05/10 04:50:44;;;;;;;1.80;0.30;;;21.70;95.50;;;;;;5026299;28;20405;-84
2021/05/10 04:53:12;;;;;;;0.60;0.40;;;21.70;95.40;;;;;;5029290;28;20365;-86
2021/05/10 04:55:40;;;;;;;0.70;0.30;;;21.50;95.10;;;;;;5022299;28;20387;-85
2021/05/10 04:58:08;;;;;;;0.50;0.35;;;21.50;95.90;;;;;;4991445;28;20383;-85
2021/05/10 05:00:35;;;;;;;2.20;0.50;;;21.50;96.60;;;;;;5005814;28;20416;-86
2021/05/10 05:03:02;;;;;;;1.40;0.40;;;21.50;95.70;;;;;;5028890;28;20862;-86
2021/05/10 05:05:29;;;;;;;4.00;0.30;;;21.40;95.60;;;;;;5018687;28;20391;-86
2021/05/10 05:07:56;;;;;;;0.97;0.40;;;21.30;95.50;;;;;;5008427;28;20411;-86
2021/05/10 05:10:23;;;;;;;0.57;0.23;;;21.20;95.80;;;;;;4995347;28;20911;-84
2021/05/10 05:12:50;;;;;;;1.30;0.47;;;21.10;96.00;;;;;;5028636;28;20397;-85
2021/05/10 05:15:19;;;;;;;0.50;0.30;;;21.10;95.20;;;;;;5010592;28;20402;-85
2021/05/10 05:17:47;;;;;;;1.08;0.30;;;21.00;95.40;;;;;;5008205;28;20945;-86
2021/05/10 05:20:14;;;;;;;2.33;0.30;;;20.90;95.30;;;;;;5008456;28;20408;-84
2021/05/10 05:22:41;;;;;;;1.50;0.40;;;20.90;95.20;;;;;;5026071;28;20408;-87
2021/05/10 05:25:09;;;;;;;0.88;0.30;;;20.80;95.50;;;;;;5005152;28;20385;-85
2021/05/10 05:27:36;;;;;;;0.40;0.30;;;20.70;95.90;;;;;;5028893;28;20393;-85
2021/05/10 05:30:05;;;;;;;0.50;0.25;;;20.60;96.10;;;;;;5028184;28;20397;-86
2021/05/10 05:32:32;;;;;;;0.73;0.30;;;20.50;96.30;;;;;;5024764;28;20400;-85
2021/05/10 05:34:59;;;;;;;1.48;0.30;;;20.50;96.10;;;;;;5024905;28;20397;-86
2021/05/10 05:37:26;;;;;;;0.32;0.30;;;20.40;96.30;;;;;;5024726;28;20397;-89
2021/05/10 05:39:54;;;;;;;1.00;0.30;;;20.40;96.30;;;;;;5023435;28;20416;-87
2021/05/10 05:42:21;;;;;;;0.77;0.30;;;20.30;96.50;;;;;;5016635;28;20878;-85
2021/05/10 05:44:50;;;;;;;1.50;0.20;;;20.30;96.80;;;;;;5018294;28;20397;-84
2021/05/10 05:47:28;;;;;;;1.52;0.30;;;20.30;96.60;;;;;;5027486;28;20413;-85
2021/05/10 05:49:55;;;;;;;0.40;0.22;;;20.20;96.50;;;;;;5020357;28;20899;-86
2021/05/10 05:52:22;;;;;;;0.55;0.20;;;20.20;97.10;;;;;;4997878;28;20393;-85
2021/05/10 05:54:51;;;;;;;0.88;0.40;;;20.10;97.20;;;;;;5024732;28;20404;-86
2021/05/10 05:57:19;;;;;;;0.70;0.40;;;20.10;97.70;;;;;;5030306;28;20950;-83
2021/05/10 05:59:46;;;;;;;0.40;0.40;;;20.10;97.60;;;;;;5029813;28;20896;-83
2021/05/10 06:02:13;;;;;;;1.38;0.40;;;19.90;98.40;;;;;;5022916;28;20965;-83
2021/05/10 06:04:40;;;;;;;2.40;0.30;;;19.90;98.00;;;;;;5028449;28;20405;-83
2021/05/10 06:07:07;;;;;;;0.57;0.30;;;19.90;97.50;;;;;;5024401;28;20535;-81
2021/05/10 06:09:34;;;;;;;0.60;0.30;;;19.80;98.20;;;;;;4995712;28;20460;-82
2021/05/10 06:12:01;;;;;;;1.30;0.30;;;19.80;98.70;;;;;;5000301;28;20515;-83
2021/05/10 06:14:28;;;;;;;0.60;0.30;;;19.70;98.70;;;;;;5012540;28;20797;-82
2021/05/10 06:16:55;;;;;;;0.68;0.50;;;19.60;98.70;;;;;;5009504;28;20393;-83
2021/05/10 06:19:22;;;;;;;1.30;0.30;;;19.50;99.20;;;;;;5013878;28;20499;-82
2021/05/10 06:21:49;;;;;;;2.35;0.40;;;19.40;99.80;;;;;;5028772;28;20397;-84
2021/05/10 06:24:16;;;;;;;0.70;0.50;;;19.30;99.50;;;;;;5015745;28;20397;-82
2021/05/10 06:26:45;;;;;;;0.90;0.30;;;19.30;99.90;;;;;;5036304;28;20948;-83
2021/05/10 06:29:12;;;;;;;1.65;0.60;;;19.20;99.90;;;;;;5013925;28;20758;-83
2021/05/10 06:31:38;;;;;;;3.70;0.70;;;19.10;99.90;;;;;;5030423;28;20554;-82
2021/05/10 06:34:05;;;;;;;7.07;5.63;;;19.00;99.90;;;;;;5029737;28;20486;-82
2021/05/10 06:36:33;;;;;;;1.93;1.73;;;19.00;99.90;;;;;;5028278;28;20407;-85
2021/05/10 06:39:00;;;;;;;1.13;0.98;;;19.00;99.90;;;;;;5031102;28;20382;-85
2021/05/10 06:41:27;;;;;;;1.80;0.82;;;18.90;99.90;;;;;;5015495;28;20517;-85
2021/05/10 06:43:54;;;;;;;0.90;0.47;;;18.80;99.90;;;;;;5032853;28;20381;-86
2021/05/10 06:46:23;;;;;;;0.70;0.40;;;18.70;99.90;;;;;;5031146;28;20397;-86
2021/05/10 06:48:50;;;;;;;2.25;0.40;;;18.60;99.90;;;;;;5011725;28;20380;-85
2021/05/10 06:51:16;;;;;;;2.90;0.60;;;18.50;99.90;;;;;;5033454;28;20381;-83
2021/05/10 06:53:43;;;;;;;0.70;0.50;;;18.50;99.90;;;;;;5014057;28;20406;-85
2021/05/10 06:56:10;;;;;;;1.15;0.40;;;18.40;99.90;;;;;;5013416;28;20387;-86
2021/05/10 06:58:37;;;;;;;1.02;0.52;;;18.30;99.90;;;;;;5013604;28;20945;-86
2021/05/10 07:01:04;;;;;;;1.35;0.80;;;18.30;99.90;;;;;;4994864;28;20427;-84
2021/05/10 07:03:31;;;;;;;1.88;0.50;;;18.20;99.90;;;;;;5015706;28;20488;-87
2021/05/10 07:05:58;;;;;;;0.75;0.40;;;18.10;99.90;;;;;;5029153;28;20385;-85
2021/05/10 07:08:25;;;;;;;1.05;0.50;;;18.10;99.90;;;;;;5029039;28;20381;-85
2021/05/10 07:10:53;;;;;;;0.90;0.50;;;18.00;99.90;;;;;;5008651;28;20918;-86
2021/05/10 07:13:23;;;;;;;0.82;0.40;;;18.00;99.90;;;;;;4993659;28;20882;-85
2021/05/10 07:15:50;;;;;;;0.45;0.40;;;17.90;99.90;;;;;;5011390;28;20483;-85
2021/05/10 07:18:18;;;;;;;1.65;0.50;;;17.90;99.90;;;;;;5002753;28;20568;-84
2021/05/10 07:20:46;;;;;;;2.40;0.50;;;17.90;99.90;;;;;;5018937;28;20911;-85
2021/05/10 07:23:15;;;;;;;1.40;0.52;;;17.90;99.90;;;;;;5011389;28;20470;-85
2021/05/10 07:25:49;;;;;;;1.10;0.70;;;17.90;99.90;;;;;;5024708;28;20401;-84
2021/05/10 07:28:18;;;;;;;1.30;0.60;;;17.80;99.90;;;;;;5005450;28;20784;-84
2021/05/10 07:30:45;;;;;;;1.40;1.20;;;17.80;99.90;;;;;;5024738;28;20798;-85
2021/05/10 07:33:13;;;;;;;2.40;1.10;;;17.70;99.90;;;;;;5025013;28;20472;-85
2021/05/10 07:35:40;;;;;;;4.75;1.77;;;17.60;99.90;;;;;;5027082;28;20429;-85
2021/05/10 07:38:07;;;;;;;4.20;1.90;;;17.50;99.90;;;;;;5027857;28;20393;-86
2021/05/10 07:40:35;;;;;;;5.40;4.15;;;17.50;99.90;;;;;;5029080;28;20424;-85
2021/05/10 07:43:03;;;;;;;6.80;5.38;;;17.40;99.90;;;;;;5026595;28;20390;-85
2021/05/10 07:45:30;;;;;;;6.90;6.20;;;17.30;99.90;;;;;;5024659;28;20436;-85
2021/05/10 07:47:58;;;;;;;5.53;4.97;;;17.20;99.90;;;;;;5028058;28;20513;-84
2021/05/10 07:50:27;;;;;;;6.53;3.43;;;17.20;99.90;;;;;;5010752;28;20428;-84
2021/05/10 07:52:54;;;;;;;5.03;2.92;;;17.20;99.90;;;;;;5026327;28;20882;-85
2021/05/10 07:55:23;;;;;;;1.80;1.50;;;17.10;99.90;;;;;;5025914;28;20437;-85
2021/05/10 07:57:53;;;;;;;1.80;1.48;;;17.00;99.90;;;;;;4996956;28;20399;-85
2021/05/10 08:00:28;;;;;;;1.75;1.10;;;17.00;99.90;;;;;;4996943;28;20418;-87
2021/05/10 08:02:57;;;;;;;3.85;3.25;;;16.90;99.90;;;;;;4998145;28;20893;-87
2021/05/10 08:05:24;;;;;;;3.05;2.35;;;16.90;99.90;;;;;;5003631;28;20408;-86
2021/05/10 08:07:51;;;;;;;3.83;2.38;;;16.90;99.90;;;;;;5009347;28;20386;-85
2021/05/10 08:10:24;;;;;;;1.55;1.45;;;16.80;99.90;;;;;;5029169;28;20397;-84
2021/05/10 08:12:51;;;;;;;3.17;1.52;;;16.80;99.90;;;;;;5000100;28;20406;-85
2021/05/10 08:15:18;;;;;;;1.90;1.27;;;16.70;99.90;;;;;;5029526;28;20405;-87
2021/05/10 08:17:48;;;;;;;1.20;0.90;;;16.80;99.90;;;;;;5031557;28;20488;-85
2021/05/10 08:20:16;;;;;;;2.92;0.93;;;16.80;99.90;;;;;;5008083;28;20407;-85
2021/05/10 08:22:44;;;;;;;2.22;0.95;;;16.80;99.90;;;;;;5031902;28;20761;-84
2021/05/10 08:25:12;;;;;;;2.88;1.10;;;16.80;99.90;;;;;;5032208;28;20482;-85
2021/05/10 08:27:40;;;;;;;2.17;1.00;;;16.80;99.90;;;;;;5002184;28;20395;-86
2021/05/10 08:30:10;;;;;;;2.33;0.90;;;16.80;99.90;;;;;;5024662;28;20390;-87
2021/05/10 08:32:38;;;;;;;1.85;1.05;;;16.80;99.90;;;;;;5027001;28;20405;-86
2021/05/10 08:35:06;;;;;;;1.15;1.05;;;16.80;99.90;;;;;;5009897;28;20401;-85
2021/05/10 08:37:33;;;;;;;2.35;0.95;;;16.80;99.90;;;;;;5022280;28;20413;-87
2021/05/10 08:40:01;;;;;;;3.13;1.00;;;16.60;99.90;;;;;;5012596;28;20405;-85
2021/05/10 08:42:28;;;;;;;2.63;1.10;;;16.50;99.90;;;;;;5024572;28;20444;-85
2021/05/10 08:44:55;;;;;;;3.30;1.00;;;16.40;99.90;;;;;;5030586;28;20428;-85
2021/05/10 08:47:32;;;;;;;3.53;1.08;;;16.20;99.90;;;;;;5029269;28;20389;-85
2021/05/10 08:50:00;;;;;;;1.77;1.13;;;16.10;99.90;;;;;;5032658;28;20796;-87
2021/05/10 08:52:27;;;;;;;3.30;1.40;;;16.00;99.90;;;;;;5016213;28;20401;-87
2021/05/10 08:54:54;;;;;;;4.23;1.30;;;15.90;99.90;;;;;;5036469;28;20501;-88
2021/05/10 08:57:22;;;;;;;2.67;1.52;;;15.80;99.90;;;;;;5013124;28;20870;-89
2021/05/10 08:59:48;;;;;;;2.08;1.30;;;15.70;99.90;;;;;;4994563;28;20419;-88
2021/05/10 09:02:15;;;;;;;3.38;1.23;;;15.60;99.90;;;;;;5011877;28;20482;-89
2021/05/10 09:04:44;;;;;;;2.28;1.23;;;15.60;99.90;;;;;;5028401;28;20377;-87
2021/05/10 09:07:12;;;;;;;2.83;1.15;;;15.60;99.90;;;;;;5029447;28;20401;-87
2021/05/10 09:09:57;;;;;;;1.60;1.40;;;15.60;99.90;;;;;;5031459;28;20386;-89
2021/05/10 09:12:39;;;;;;;2.22;1.20;;;15.60;99.90;;;;;;5017999;28;20393;-85
2021/05/10 09:15:27;;;;;;;4.50;1.23;;;15.60;99.90;;;;;;5016593;28;20411;-87
2021/05/10 09:18:05;;;;;;;4.47;1.80;;;15.70;99.90;;;;;;5032137;28;20750;-88
2021/05/10 09:20:35;;;;;;;2.47;2.15;;;15.70;99.90;;;;;;5005128;28;20401;-90
2021/05/10 09:23:03;;;;;;;3.10;2.10;;;15.70;99.90;;;;;;5012324;28;20375;-88
2021/05/10 09:25:30;;;;;;;5.63;2.47;;;15.70;99.90;;;;;;5011290;28;20482;-89
2021/05/10 09:28:13;;;;;;;3.80;2.33;;;15.70;99.90;;;;;;5023720;28;20416;-87
2021/05/10 09:30:45;;;;;;;2.85;2.42;;;15.70;99.90;;;;;;5015119;28;20445;-87
2021/05/10 09:33:23;;;;;;;3.92;2.30;;;15.60;99.90;;;;;;5017810;28;20933;-87
2021/05/10 09:35:58;;;;;;;6.38;2.60;;;15.60;99.90;;;;;;5016642;28;21106;-87
2021/05/10 09:38:30;;;;;;;3.88;2.80;;;15.60;99.90;;;;;;5022744;28;20465;-86
2021/05/10 09:41:02;;;;;;;3.17;2.85;;;15.60;99.90;;;;;;4999286;28;20419;-86
2021/05/10 09:43:35;;;;;;;4.82;2.72;;;15.60;99.90;;;;;;5006509;28;20727;-86
2021/05/10 09:46:12;;;;;;;5.07;3.25;;;15.60;99.90;;;;;;5015107;28;20417;-85
2021/05/10 09:48:42;;;;;;;5.90;3.25;;;15.60;99.90;;;;;;5029324;28;20397;-88
2021/05/10 09:51:14;;;;;;;6.68;2.92;;;15.60;99.90;;;;;;5031990;28;20451;-86
2021/05/10 09:53:43;;;;;;;6.13;4.15;;;15.60;99.90;;;;;;5005890;28;20402;-87
2021/05/10 09:56:27;;;;;;;9.55;3.55;;;15.50;99.90;;;;;;5033943;28;20447;-87
2021/05/10 09:59:01;;;;;;;4.30;3.28;;;15.50;99.90;;;;;;5005374;28;20399;-86
2021/05/10 10:01:46;;;;;;;4.05;2.80;;;15.40;99.90;;;;;;5024793;28;20412;-86
2021/05/10 10:04:20;;;;;;;3.78;1.77;;;15.30;99.90;;;;;;5010158;28;20382;-86
2021/05/10 10:06:48;;;;;;;2.67;1.40;;;15.40;99.90;;;;;;5029182;28;20732;-86
2021/05/10 10:09:15;;;;;;;1.48;1.33;;;15.40;99.90;;;;;;5012020;28;20420;-87
2021/05/10 10:11:42;;;;;;;2.45;1.30;;;15.40;99.90;;;;;;5003161;28;20410;-87
2021/05/10 10:14:10;;;;;;;3.50;1.50;;;15.50;99.90;;;;;;5014500;28;20389;-87
2021/05/10 10:16:40;;;;;;;3.63;1.43;;;15.40;99.90;;;;;;5013408;28;20392;-87
2021/05/10 10:19:08;;;;;;;2.15;1.60;;;15.40;99.90;;;;;;5029314;28;20910;-87
2021/05/10 10:21:38;;;;;;;3.88;1.75;;;15.30;99.90;;;;;;5032114;28;20409;-86
2021/05/10 10:24:09;;;;;;;3.25;1.70;;;15.30;99.90;;;;;;5003170;28;20804;-88
2021/05/10 10:26:38;;;;;;;3.50;2.03;;;15.10;99.90;;;;;;5009436;28;20499;-88
2021/05/10 10:29:11;;;;;;;2.08;1.77;;;15.10;99.90;;;;;;5016544;28;20452;-88
2021/05/10 10:31:51;;;;;;;3.75;2.10;;;15.00;99.90;;;;;;4997230;28;20469;-88
2021/05/10 10:34:40;;;;;;;3.38;2.08;;;14.90;99.90;;;;;;4993752;28;20746;-86
2021/05/10 10:37:08;;;;;;;4.32;2.33;;;14.80;99.90;;;;;;5025200;28;20406;-86
2021/05/10 10:39:35;;;;;;;3.67;2.60;;;14.80;99.90;;;;;;5032521;28;20446;-86
2021/05/10 10:42:21;;;;;;;2.33;2.00;;;14.80;99.90;;;;;;5029790;28;20452;-87
2021/05/10 10:45:21;;;;;;;5.03;3.20;;;14.70;99.90;;;;;;5027717;28;20436;-85
2021/05/10 10:47:56;;;;;;;8.93;4.57;;;14.70;99.90;;;;;;5029779;28;20958;-86
2021/05/10 10:50:25;;;;;;;10.65;9.55;;;14.60;99.90;;;;;;5030784;28;20389;-86
2021/05/10 10:53:00;;;;;;;12.40;10.60;;;14.40;99.90;;;;;;5017242;28;20406;-86
2021/05/10 10:55:30;;;;;;;13.52;11.13;;;14.20;99.90;;;;;;5010903;28;20935;-88
2021/05/10 10:58:20;;;;;;;13.38;10.43;;;14.20;99.90;;;;;;5008234;28;20398;-87
2021/05/10 11:01:11;;;;;;;11.23;9.40;;;14.10;99.90;;;;;;5027889;28;20401;-87
2021/05/10 11:03:39;;;;;;;10.20;8.23;;;14.00;99.90;;;;;;5013719;28;20373;-87
2021/05/10 11:06:08;;;;;;;11.18;7.38;;;14.00;99.90;;;;;;5019468;28;20405;-87
2021/05/10 11:08:41;;;;;;;8.37;6.70;;;14.00;99.90;;;;;;5023311;28;20385;-86
2021/05/10 11:11:08;;;;;;;7.50;4.63;;;13.90;99.90;;;;;;5024259;28;20435;-85
2021/05/10 11:13:37;;;;;;;4.53;3.75;;;13.90;99.90;;;;;;5022065;28;20487;-87
2021/05/10 11:16:15;;;;;;;4.85;3.35;;;13.80;99.90;;;;;;5025099;28;20410;-88
2021/05/10 11:19:04;;;;;;;3.37;3.07;;;13.80;99.90;;;;;;5005343;28;20527;-87
2021/05/10 11:21:31;;;;;;;4.57;3.28;;;13.90;99.90;;;;;;5008704;28;20462;-88
2021/05/10 11:23:59;;;;;;;4.97;3.15;;;13.90;99.90;;;;;;5009124;28;20451;-87
2021/05/10 11:26:46;;;;;;;2.95;2.58;;;13.90;99.90;;;;;;5002811;28;20441;-85
2021/05/10 11:29:28;;;;;;;3.00;2.03;;;13.90;99.90;;;;;;5016441;28;20393;-86
2021/05/10 11:32:19;;;;;;;3.80;2.20;;;14.00;99.90;;;;;;5013322;28;20448;-87
2021/05/10 11:34:48;;;;;;;2.70;1.80;;;14.00;99.90;;;;;;5010910;28;20397;-85
2021/05/10 11:37:26;;;;;;;3.13;2.00;;;14.00;99.90;;;;;;5026986;28;20451;-86
2021/05/10 11:39:56;;;;;;;2.85;1.83;;;14.00;99.90;;;;;;5016104;28;20803;-85
2021/05/10 11:42:31;;;;;;;6.57;2.40;;;14.00;99.90;;;;;;5028502;28;20512;-86
2021/05/10 11:45:02;;;;;;;4.50;2.45;;;14.00;99.90;;;;;;5013070;28;20838;-86
2021/05/10 11:47:29;;;;;;;4.38;2.85;;;14.00;99.90;;;;;;5024691;28;20919;-91
2021/05/10 11:50:00;;;;;;;3.45;2.30;;;14.00;99.90;;;;;;5026731;28;20410;-85
2021/05/10 11:52:30;;;;;;;4.55;3.25;;;14.00;99.90;;;;;;5004942;28;20410;-84
2021/05/10 11:54:59;;;;;;;5.07;3.40;;;14.00;99.90;;;;;;5026614;28;20385;-87
2021/05/10 11:57:32;;;;;;;4.25;2.90;;;14.00;99.90;;;;;;5007862;28;20451;-89
2021/05/10 12:02:31;;;;;;;2.85;2.30;;;14.00;99.90;;;;;;5025345;28;20403;-87
2021/05/10 12:05:07;;;;;;;2.78;1.77;;;14.00;99.90;;;;;;5007875;28;20419;-87
2021/05/10 12:07:35;;;;;;;4.63;2.50;;;14.00;99.90;;;;;;5030370;28;20397;-85
2021/05/10 12:10:15;;;;;;;2.83;2.03;;;14.00;99.90;;;;;;5011959;28;20963;-86
2021/05/10 12:12:49;;;;;;;2.60;1.77;;;14.00;99.90;;;;;;5029816;28;20951;-87
2021/05/10 12:15:24;;;;;;;2.97;1.70;;;14.00;99.90;;;;;;5028785;28;20389;-85
2021/05/10 12:17:53;;;;;;;2.00;1.60;;;14.00;99.90;;;;;;5020516;28;20385;-90
2021/05/10 12:20:23;;;;;;;3.95;1.73;;;14.10;99.90;;;;;;5030262;28;20409;-86
2021/05/10 12:23:03;;;;;;;4.30;1.48;;;14.00;99.90;;;;;;5011060;28;20408;-85
2021/05/10 12:25:35;;;;;;;3.92;1.90;;;13.90;99.90;;;;;;4994204;28;20509;-86
2021/05/10 12:28:13;;;;;;;5.07;1.75;;;13.90;99.90;;;;;;5013527;28;20482;-86
2021/05/10 12:30:50;;;;;;;3.75;1.75;;;13.80;99.90;;;;;;5019999;28;20523;-86
2021/05/10 12:33:18;;;;;;;2.47;2.00;;;13.80;99.90;;;;;;5018074;28;20947;-86
2021/05/10 12:35:53;;;;;;;1.60;1.50;;;13.80;99.90;;;;;;5022181;28;20386;-86
2021/05/10 12:38:39;;;;;;;4.88;1.92;;;13.70;99.90;;;;;;4999682;28;20410;-86
2021/05/10 12:41:09;;;;;;;5.78;2.15;;;13.70;99.90;;;;;;5010834;28;20399;-86
2021/05/10 12:43:50;;;;;;;2.08;1.50;;;13.70;99.90;;;;;;5017605;28;20401;-85
2021/05/10 12:46:17;;;;;;;2.50;1.77;;;13.70;99.90;;;;;;5009652;28;20523;-85
2021/05/10 12:48:46;;;;;;;3.25;1.80;;;13.80;99.90;;;;;;5020767;28;20525;-85
2021/05/10 12:51:16;;;;;;;3.90;1.73;;;13.90;99.90;;;;;;5022940;28;20487;-86
2021/05/10 12:53:55;;;;;;;2.08;1.65;;;13.80;99.90;;;;;;5001031;28;20811;-86
2021/05/10 12:56:25;;;;;;;2.92;1.75;;;13.80;99.90;;;;;;5021578;28;20465;-86
2021/05/10 12:58:53;;;;;;;5.05;1.70;;;13.80;99.90;;;;;;5003771;28;20477;-86
2021/05/10 13:01:25;;;;;;;3.45;1.58;;;13.70;99.90;;;;;;5024208;28;20409;-86
2021/05/10 13:04:01;;;;;;;3.77;2.00;;;13.60;99.90;;;;;;5024272;28;20408;-86
2021/05/10 13:06:31;;;;;;;6.47;3.10;;;13.60;99.90;;;;;;5020467;28;20407;-86
2021/05/10 13:09:01;;;;;;;4.28;2.65;;;13.50;99.90;;;;;;5000233;28;20391;-86